Terminal Aerodrome Forecast
Issued by NWS

Home | Current Version | Previous Version | Text Only | Print | Product List | Glossary On
Versions: 1 2 3 4 5 6 7 8 9 10 11 12 13 14 15 16 17 18 19
000
FTUS44 KTSA 251700
TAFMLC
TAF
KMLC 251720Z 2518/2618 21008KT P6SM SKC
     FM260000 22006KT P6SM SKC
     FM260600 VRB05KT P6SM SCT250
     FM261200 04005KT P6SM SCT250=

USA.gov is the U.S. government's official web portal to all federal, state and local government web resources and services.